sensor_id;sensor_type;location;lat;lon;timestamp;P1;durP1;ratioP1;P2;durP2;ratioP2
30539;SDS011;17321;46.312;4.776;2022-10-31T00:00:51;16.80;;;6.25;;
30539;SDS011;17321;46.312;4.776;2022-10-31T00:03:17;20.80;;;6.95;;
30539;SDS011;17321;46.312;4.776;2022-10-31T00:05:45;19.52;;;6.72;;
30539;SDS011;17321;46.312;4.776;2022-10-31T00:08:11;22.77;;;7.60;;
30539;SDS011;17321;46.312;4.776;2022-10-31T00:10:40;18.33;;;7.00;;
30539;SDS011;17321;46.312;4.776;2022-10-31T00:13:07;22.77;;;6.25;;
30539;SDS011;17321;46.312;4.776;2022-10-31T00:15:34;18.02;;;6.18;;
30539;SDS011;17321;46.312;4.776;2022-10-31T00:18:00;25.40;;;7.88;;
30539;SDS011;17321;46.312;4.776;2022-10-31T00:20:26;23.27;;;7.95;;
30539;SDS011;17321;46.312;4.776;2022-10-31T00:22:52;20.63;;;6.57;;
30539;SDS011;17321;46.312;4.776;2022-10-31T00:25:19;16.08;;;6.68;;
30539;SDS011;17321;46.312;4.776;2022-10-31T00:27:45;24.65;;;7.15;;
30539;SDS011;17321;46.312;4.776;2022-10-31T00:30:11;14.82;;;5.78;;
30539;SDS011;17321;46.312;4.776;2022-10-31T00:32:38;18.92;;;7.43;;
30539;SDS011;17321;46.312;4.776;2022-10-31T00:35:04;20.00;;;7.68;;
30539;SDS011;17321;46.312;4.776;2022-10-31T00:37:30;21.38;;;6.05;;
30539;SDS011;17321;46.312;4.776;2022-10-31T00:39:56;21.05;;;7.93;;
30539;SDS011;17321;46.312;4.776;2022-10-31T00:42:22;19.23;;;7.43;;
30539;SDS011;17321;46.312;4.776;2022-10-31T00:44:48;20.02;;;6.65;;
30539;SDS011;17321;46.312;4.776;2022-10-31T00:47:14;18.52;;;6.55;;
30539;SDS011;17321;46.312;4.776;2022-10-31T00:49:40;20.15;;;7.65;;
30539;SDS011;17321;46.312;4.776;2022-10-31T00:52:06;21.55;;;7.07;;
30539;SDS011;17321;46.312;4.776;2022-10-31T00:54:32;19.92;;;7.25;;
30539;SDS011;17321;46.312;4.776;2022-10-31T00:56:59;22.10;;;7.03;;
30539;SDS011;17321;46.312;4.776;2022-10-31T00:59:25;16.67;;;6.55;;
30539;SDS011;17321;46.312;4.776;2022-10-31T01:01:51;27.20;;;7.18;;
30539;SDS011;17321;46.312;4.776;2022-10-31T01:04:17;16.17;;;6.60;;
30539;SDS011;17321;46.312;4.776;2022-10-31T01:06:43;17.23;;;6.55;;
30539;SDS011;17321;46.312;4.776;2022-10-31T01:09:09;19.50;;;6.95;;
30539;SDS011;17321;46.312;4.776;2022-10-31T01:11:35;23.67;;;7.05;;
30539;SDS011;17321;46.312;4.776;2022-10-31T01:14:01;22.05;;;6.72;;
30539;SDS011;17321;46.312;4.776;2022-10-31T01:16:28;15.25;;;6.43;;
30539;SDS011;17321;46.312;4.776;2022-10-31T01:21:24;24.83;;;7.50;;
30539;SDS011;17321;46.312;4.776;2022-10-31T01:23:52;16.23;;;6.13;;
30539;SDS011;17321;46.312;4.776;2022-10-31T01:26:21;15.07;;;6.20;;
30539;SDS011;17321;46.312;4.776;2022-10-31T01:28:55;22.75;;;8.00;;
30539;SDS011;17321;46.312;4.776;2022-10-31T01:31:22;19.88;;;6.82;;
30539;SDS011;17321;46.312;4.776;2022-10-31T01:33:48;19.38;;;7.25;;
30539;SDS011;17321;46.312;4.776;2022-10-31T01:36:21;17.42;;;6.80;;
30539;SDS011;17321;46.312;4.776;2022-10-31T01:38:48;19.15;;;7.70;;
30539;SDS011;17321;46.312;4.776;2022-10-31T01:41:16;21.13;;;7.80;;
30539;SDS011;17321;46.312;4.776;2022-10-31T01:46:09;17.48;;;6.07;;
30539;SDS011;17321;46.312;4.776;2022-10-31T01:48:35;19.92;;;6.57;;
30539;SDS011;17321;46.312;4.776;2022-10-31T01:51:01;22.08;;;6.82;;
30539;SDS011;17321;46.312;4.776;2022-10-31T01:53:30;14.88;;;6.70;;
30539;SDS011;17321;46.312;4.776;2022-10-31T01:55:56;18.77;;;7.35;;
30539;SDS011;17321;46.312;4.776;2022-10-31T01:58:23;20.33;;;6.95;;
30539;SDS011;17321;46.312;4.776;2022-10-31T02:00:51;20.98;;;7.03;;
30539;SDS011;17321;46.312;4.776;2022-10-31T02:03:20;13.23;;;6.38;;
30539;SDS011;17321;46.312;4.776;2022-10-31T02:05:46;17.15;;;6.45;;
30539;SDS011;17321;46.312;4.776;2022-10-31T02:10:39;20.63;;;7.30;;
30539;SDS011;17321;46.312;4.776;2022-10-31T02:13:06;25.63;;;8.07;;
30539;SDS011;17321;46.312;4.776;2022-10-31T02:15:33;21.08;;;7.40;;
30539;SDS011;17321;46.312;4.776;2022-10-31T02:18:00;21.38;;;6.97;;
30539;SDS011;17321;46.312;4.776;2022-10-31T02:20:36;19.60;;;7.38;;
30539;SDS011;17321;46.312;4.776;2022-10-31T02:33:41;18.55;;;7.15;;
30539;SDS011;17321;46.312;4.776;2022-10-31T02:48:49;19.45;;;8.00;;
30539;SDS011;17321;46.312;4.776;2022-10-31T02:51:17;19.98;;;6.75;;
30539;SDS011;17321;46.312;4.776;2022-10-31T02:53:43;12.60;;;6.55;;
30539;SDS011;17321;46.312;4.776;2022-10-31T02:56:17;17.65;;;7.45;;
30539;SDS011;17321;46.312;4.776;2022-10-31T02:58:53;13.50;;;5.95;;
30539;SDS011;17321;46.312;4.776;2022-10-31T03:04:32;13.40;;;6.10;;
30539;SDS011;17321;46.312;4.776;2022-10-31T03:07:19;12.83;;;5.97;;
30539;SDS011;17321;46.312;4.776;2022-10-31T03:09:51;10.88;;;6.13;;
30539;SDS011;17321;46.312;4.776;2022-10-31T03:12:28;15.00;;;5.80;;
30539;SDS011;17321;46.312;4.776;2022-10-31T03:17:23;14.18;;;6.25;;
30539;SDS011;17321;46.312;4.776;2022-10-31T03:19:51;16.08;;;6.10;;
30539;SDS011;17321;46.312;4.776;2022-10-31T03:22:22;14.48;;;6.60;;
30539;SDS011;17321;46.312;4.776;2022-10-31T03:24:49;12.88;;;5.20;;
30539;SDS011;17321;46.312;4.776;2022-10-31T03:27:17;9.70;;;5.78;;
30539;SDS011;17321;46.312;4.776;2022-10-31T03:29:44;11.00;;;5.90;;
30539;SDS011;17321;46.312;4.776;2022-10-31T03:32:16;19.02;;;6.35;;
30539;SDS011;17321;46.312;4.776;2022-10-31T03:34:43;14.40;;;6.20;;
30539;SDS011;17321;46.312;4.776;2022-10-31T03:37:11;15.52;;;6.13;;
30539;SDS011;17321;46.312;4.776;2022-10-31T03:39:39;14.80;;;6.45;;
30539;SDS011;17321;46.312;4.776;2022-10-31T03:42:11;11.60;;;5.93;;
30539;SDS011;17321;46.312;4.776;2022-10-31T03:44:41;22.60;;;6.80;;
30539;SDS011;17321;46.312;4.776;2022-10-31T03:49:34;12.20;;;5.82;;
30539;SDS011;17321;46.312;4.776;2022-10-31T03:52:02;13.23;;;6.57;;
30539;SDS011;17321;46.312;4.776;2022-10-31T03:54:42;13.48;;;6.45;;
30539;SDS011;17321;46.312;4.776;2022-10-31T03:57:18;14.30;;;5.93;;
30539;SDS011;17321;46.312;4.776;2022-10-31T03:59:47;15.10;;;6.53;;
30539;SDS011;17321;46.312;4.776;2022-10-31T04:02:16;10.18;;;6.35;;
30539;SDS011;17321;46.312;4.776;2022-10-31T04:04:43;18.38;;;6.40;;
30539;SDS011;17321;46.312;4.776;2022-10-31T04:07:09;14.88;;;6.35;;
30539;SDS011;17321;46.312;4.776;2022-10-31T04:09:37;16.73;;;6.13;;
30539;SDS011;17321;46.312;4.776;2022-10-31T04:12:04;8.90;;;5.80;;
30539;SDS011;17321;46.312;4.776;2022-10-31T04:14:33;12.05;;;6.18;;
30539;SDS011;17321;46.312;4.776;2022-10-31T04:17:01;15.55;;;6.30;;
30539;SDS011;17321;46.312;4.776;2022-10-31T04:19:28;23.95;;;6.57;;
30539;SDS011;17321;46.312;4.776;2022-10-31T04:21:54;14.75;;;6.15;;
30539;SDS011;17321;46.312;4.776;2022-10-31T04:24:20;18.98;;;7.32;;
30539;SDS011;17321;46.312;4.776;2022-10-31T04:26:46;24.73;;;6.85;;
30539;SDS011;17321;46.312;4.776;2022-10-31T04:29:12;14.18;;;6.40;;
30539;SDS011;17321;46.312;4.776;2022-10-31T04:31:39;17.30;;;5.90;;
30539;SDS011;17321;46.312;4.776;2022-10-31T04:34:05;12.38;;;6.20;;
30539;SDS011;17321;46.312;4.776;2022-10-31T04:36:32;16.48;;;6.30;;
30539;SDS011;17321;46.312;4.776;2022-10-31T04:38:58;14.55;;;6.03;;
30539;SDS011;17321;46.312;4.776;2022-10-31T04:41:24;15.02;;;6.45;;
30539;SDS011;17321;46.312;4.776;2022-10-31T04:43:50;11.65;;;6.03;;
30539;SDS011;17321;46.312;4.776;2022-10-31T04:46:16;9.02;;;6.00;;
30539;SDS011;17321;46.312;4.776;2022-10-31T04:48:42;15.20;;;6.22;;
30539;SDS011;17321;46.312;4.776;2022-10-31T04:51:08;15.77;;;6.28;;
30539;SDS011;17321;46.312;4.776;2022-10-31T04:53:35;10.73;;;5.93;;
30539;SDS011;17321;46.312;4.776;2022-10-31T04:56:01;16.45;;;7.03;;
30539;SDS011;17321;46.312;4.776;2022-10-31T04:58:27;15.13;;;6.80;;
30539;SDS011;17321;46.312;4.776;2022-10-31T05:00:54;12.35;;;7.13;;
30539;SDS011;17321;46.312;4.776;2022-10-31T05:03:20;14.23;;;6.13;;
30539;SDS011;17321;46.312;4.776;2022-10-31T05:05:46;12.70;;;6.85;;
30539;SDS011;17321;46.312;4.776;2022-10-31T05:08:13;14.82;;;6.65;;
30539;SDS011;17321;46.312;4.776;2022-10-31T05:10:39;12.35;;;5.82;;
30539;SDS011;17321;46.312;4.776;2022-10-31T05:13:05;12.80;;;6.40;;
30539;SDS011;17321;46.312;4.776;2022-10-31T05:15:32;15.05;;;7.57;;
30539;SDS011;17321;46.312;4.776;2022-10-31T05:17:58;25.75;;;8.85;;
30539;SDS011;17321;46.312;4.776;2022-10-31T05:20:25;22.40;;;8.98;;
30539;SDS011;17321;46.312;4.776;2022-10-31T05:22:52;21.75;;;9.18;;
30539;SDS011;17321;46.312;4.776;2022-10-31T05:25:19;23.23;;;8.48;;
30539;SDS011;17321;46.312;4.776;2022-10-31T05:27:46;18.30;;;7.35;;
30539;SDS011;17321;46.312;4.776;2022-10-31T05:30:13;24.17;;;8.50;;
30539;SDS011;17321;46.312;4.776;2022-10-31T05:32:40;24.63;;;8.50;;
30539;SDS011;17321;46.312;4.776;2022-10-31T05:35:07;18.05;;;8.15;;
30539;SDS011;17321;46.312;4.776;2022-10-31T05:37:34;23.17;;;8.68;;
30539;SDS011;17321;46.312;4.776;2022-10-31T05:40:01;18.75;;;8.80;;
30539;SDS011;17321;46.312;4.776;2022-10-31T05:42:27;28.13;;;8.30;;
30539;SDS011;17321;46.312;4.776;2022-10-31T05:44:53;23.77;;;8.98;;
30539;SDS011;17321;46.312;4.776;2022-10-31T05:47:19;25.23;;;8.68;;
30539;SDS011;17321;46.312;4.776;2022-10-31T05:49:45;23.90;;;8.98;;
30539;SDS011;17321;46.312;4.776;2022-10-31T05:52:11;28.45;;;8.98;;
30539;SDS011;17321;46.312;4.776;2022-10-31T05:54:37;24.20;;;9.60;;
30539;SDS011;17321;46.312;4.776;2022-10-31T05:57:04;19.25;;;9.00;;
30539;SDS011;17321;46.312;4.776;2022-10-31T05:59:30;19.00;;;8.68;;
30539;SDS011;17321;46.312;4.776;2022-10-31T06:01:56;26.13;;;9.48;;
30539;SDS011;17321;46.312;4.776;2022-10-31T06:04:22;32.08;;;10.48;;
30539;SDS011;17321;46.312;4.776;2022-10-31T06:06:48;32.17;;;9.23;;
30539;SDS011;17321;46.312;4.776;2022-10-31T06:09:14;25.83;;;9.35;;
30539;SDS011;17321;46.312;4.776;2022-10-31T06:11:40;23.88;;;9.73;;
30539;SDS011;17321;46.312;4.776;2022-10-31T06:14:06;27.10;;;10.30;;
30539;SDS011;17321;46.312;4.776;2022-10-31T06:16:32;26.50;;;10.10;;
30539;SDS011;17321;46.312;4.776;2022-10-31T06:18:58;19.63;;;9.00;;
30539;SDS011;17321;46.312;4.776;2022-10-31T06:21:24;24.48;;;9.25;;
30539;SDS011;17321;46.312;4.776;2022-10-31T06:23:51;25.90;;;10.02;;
30539;SDS011;17321;46.312;4.776;2022-10-31T06:26:17;20.58;;;10.27;;
30539;SDS011;17321;46.312;4.776;2022-10-31T06:28:43;37.95;;;11.20;;
30539;SDS011;17321;46.312;4.776;2022-10-31T06:31:09;30.77;;;10.40;;
30539;SDS011;17321;46.312;4.776;2022-10-31T06:33:35;27.77;;;11.00;;
30539;SDS011;17321;46.312;4.776;2022-10-31T06:36:01;17.63;;;9.80;;
30539;SDS011;17321;46.312;4.776;2022-10-31T06:38:28;25.70;;;11.00;;
30539;SDS011;17321;46.312;4.776;2022-10-31T06:40:54;24.92;;;9.77;;
30539;SDS011;17321;46.312;4.776;2022-10-31T06:43:20;26.52;;;11.30;;
30539;SDS011;17321;46.312;4.776;2022-10-31T06:45:46;32.72;;;10.57;;
30539;SDS011;17321;46.312;4.776;2022-10-31T06:48:12;34.03;;;11.48;;
30539;SDS011;17321;46.312;4.776;2022-10-31T06:50:38;24.42;;;10.93;;
30539;SDS011;17321;46.312;4.776;2022-10-31T06:53:05;21.13;;;10.23;;
30539;SDS011;17321;46.312;4.776;2022-10-31T06:55:31;32.90;;;11.00;;
30539;SDS011;17321;46.312;4.776;2022-10-31T06:57:58;28.45;;;11.05;;
30539;SDS011;17321;46.312;4.776;2022-10-31T07:00:25;22.70;;;10.27;;
30539;SDS011;17321;46.312;4.776;2022-10-31T07:02:58;25.20;;;11.05;;
30539;SDS011;17321;46.312;4.776;2022-10-31T07:05:24;22.38;;;10.68;;
30539;SDS011;17321;46.312;4.776;2022-10-31T07:07:51;24.02;;;10.45;;
30539;SDS011;17321;46.312;4.776;2022-10-31T07:10:18;30.08;;;10.05;;
30539;SDS011;17321;46.312;4.776;2022-10-31T07:12:44;27.40;;;9.60;;
30539;SDS011;17321;46.312;4.776;2022-10-31T07:15:10;20.42;;;9.18;;
30539;SDS011;17321;46.312;4.776;2022-10-31T07:17:36;21.98;;;9.45;;
30539;SDS011;17321;46.312;4.776;2022-10-31T07:20:03;26.40;;;9.57;;
30539;SDS011;17321;46.312;4.776;2022-10-31T07:22:35;27.45;;;9.93;;
30539;SDS011;17321;46.312;4.776;2022-10-31T07:25:02;26.88;;;10.27;;
30539;SDS011;17321;46.312;4.776;2022-10-31T07:27:29;26.20;;;10.43;;
30539;SDS011;17321;46.312;4.776;2022-10-31T07:30:00;27.55;;;9.57;;
30539;SDS011;17321;46.312;4.776;2022-10-31T07:32:26;30.02;;;10.05;;
30539;SDS011;17321;46.312;4.776;2022-10-31T07:34:52;24.95;;;10.65;;
30539;SDS011;17321;46.312;4.776;2022-10-31T07:37:18;30.45;;;10.65;;
30539;SDS011;17321;46.312;4.776;2022-10-31T07:39:44;30.15;;;11.18;;
30539;SDS011;17321;46.312;4.776;2022-10-31T07:42:11;24.98;;;10.90;;
30539;SDS011;17321;46.312;4.776;2022-10-31T07:44:37;26.45;;;9.57;;
30539;SDS011;17321;46.312;4.776;2022-10-31T07:47:03;33.28;;;10.77;;
30539;SDS011;17321;46.312;4.776;2022-10-31T07:49:29;34.65;;;12.05;;
30539;SDS011;17321;46.312;4.776;2022-10-31T07:51:55;24.00;;;10.65;;
30539;SDS011;17321;46.312;4.776;2022-10-31T07:54:21;31.50;;;10.55;;
30539;SDS011;17321;46.312;4.776;2022-10-31T07:56:47;28.35;;;11.05;;
30539;SDS011;17321;46.312;4.776;2022-10-31T07:59:13;29.08;;;10.70;;
30539;SDS011;17321;46.312;4.776;2022-10-31T08:01:39;34.22;;;11.23;;
30539;SDS011;17321;46.312;4.776;2022-10-31T08:04:05;22.63;;;10.73;;
30539;SDS011;17321;46.312;4.776;2022-10-31T08:06:31;38.95;;;11.32;;
30539;SDS011;17321;46.312;4.776;2022-10-31T08:08:59;22.55;;;11.48;;
30539;SDS011;17321;46.312;4.776;2022-10-31T08:11:25;27.67;;;11.70;;
30539;SDS011;17321;46.312;4.776;2022-10-31T08:13:51;25.00;;;11.88;;
30539;SDS011;17321;46.312;4.776;2022-10-31T08:16:17;34.50;;;11.98;;
30539;SDS011;17321;46.312;4.776;2022-10-31T08:18:43;39.92;;;12.07;;
30539;SDS011;17321;46.312;4.776;2022-10-31T08:21:09;27.90;;;10.68;;
30539;SDS011;17321;46.312;4.776;2022-10-31T08:23:35;32.70;;;10.73;;
30539;SDS011;17321;46.312;4.776;2022-10-31T08:26:01;37.20;;;11.55;;
30539;SDS011;17321;46.312;4.776;2022-10-31T08:28:28;30.55;;;11.25;;
30539;SDS011;17321;46.312;4.776;2022-10-31T08:30:54;34.85;;;12.25;;
30539;SDS011;17321;46.312;4.776;2022-10-31T08:33:20;26.35;;;11.10;;
30539;SDS011;17321;46.312;4.776;2022-10-31T08:35:46;28.40;;;10.80;;
30539;SDS011;17321;46.312;4.776;2022-10-31T08:38:12;35.25;;;11.48;;
30539;SDS011;17321;46.312;4.776;2022-10-31T08:40:39;33.53;;;10.90;;
30539;SDS011;17321;46.312;4.776;2022-10-31T08:43:06;31.65;;;10.52;;
30539;SDS011;17321;46.312;4.776;2022-10-31T08:45:34;30.88;;;10.30;;
30539;SDS011;17321;46.312;4.776;2022-10-31T08:48:02;31.45;;;11.73;;
30539;SDS011;17321;46.312;4.776;2022-10-31T08:50:29;39.63;;;13.65;;
30539;SDS011;17321;46.312;4.776;2022-10-31T08:52:59;46.83;;;13.80;;
30539;SDS011;17321;46.312;4.776;2022-10-31T08:55:26;30.02;;;11.80;;
30539;SDS011;17321;46.312;4.776;2022-10-31T08:57:55;32.45;;;13.18;;
30539;SDS011;17321;46.312;4.776;2022-10-31T09:00:21;31.75;;;11.90;;
30539;SDS011;17321;46.312;4.776;2022-10-31T09:02:47;40.33;;;12.32;;
30539;SDS011;17321;46.312;4.776;2022-10-31T09:05:14;35.45;;;13.02;;
30539;SDS011;17321;46.312;4.776;2022-10-31T09:07:40;26.33;;;11.95;;
30539;SDS011;17321;46.312;4.776;2022-10-31T09:10:06;26.58;;;11.40;;
30539;SDS011;17321;46.312;4.776;2022-10-31T09:12:32;32.08;;;11.95;;
30539;SDS011;17321;46.312;4.776;2022-10-31T09:14:58;37.22;;;11.38;;
30539;SDS011;17321;46.312;4.776;2022-10-31T09:17:26;29.20;;;11.87;;
30539;SDS011;17321;46.312;4.776;2022-10-31T09:19:54;33.03;;;10.68;;
30539;SDS011;17321;46.312;4.776;2022-10-31T09:22:20;33.05;;;10.88;;
30539;SDS011;17321;46.312;4.776;2022-10-31T09:24:46;42.42;;;11.73;;
30539;SDS011;17321;46.312;4.776;2022-10-31T09:27:12;37.95;;;10.85;;
30539;SDS011;17321;46.312;4.776;2022-10-31T09:29:39;34.13;;;11.10;;
30539;SDS011;17321;46.312;4.776;2022-10-31T09:32:05;34.97;;;10.27;;
30539;SDS011;17321;46.312;4.776;2022-10-31T09:34:31;25.27;;;10.20;;
30539;SDS011;17321;46.312;4.776;2022-10-31T09:36:57;26.80;;;10.88;;
30539;SDS011;17321;46.312;4.776;2022-10-31T09:39:23;32.92;;;11.23;;
30539;SDS011;17321;46.312;4.776;2022-10-31T09:52:18;28.30;;;10.43;;
30539;SDS011;17321;46.312;4.776;2022-10-31T09:57:21;25.27;;;9.48;;
30539;SDS011;17321;46.312;4.776;2022-10-31T09:59:49;23.63;;;10.18;;
30539;SDS011;17321;46.312;4.776;2022-10-31T10:02:29;24.38;;;9.70;;
30539;SDS011;17321;46.312;4.776;2022-10-31T10:05:01;27.77;;;10.98;;
30539;SDS011;17321;46.312;4.776;2022-10-31T10:09:55;27.90;;;9.63;;
30539;SDS011;17321;46.312;4.776;2022-10-31T10:17:45;27.15;;;9.85;;
30539;SDS011;17321;46.312;4.776;2022-10-31T10:25:48;26.27;;;8.70;;
30539;SDS011;17321;46.312;4.776;2022-10-31T10:28:23;28.80;;;9.02;;
30539;SDS011;17321;46.312;4.776;2022-10-31T10:31:05;33.07;;;8.30;;
30539;SDS011;17321;46.312;4.776;2022-10-31T10:35:59;21.77;;;7.60;;
30539;SDS011;17321;46.312;4.776;2022-10-31T10:41:01;37.10;;;14.55;;
30539;SDS011;17321;46.312;4.776;2022-10-31T10:43:35;28.35;;;10.07;;
30539;SDS011;17321;46.312;4.776;2022-10-31T10:57:00;19.10;;;8.27;;
30539;SDS011;17321;46.312;4.776;2022-10-31T10:59:30;22.23;;;7.60;;
30539;SDS011;17321;46.312;4.776;2022-10-31T11:01:57;28.30;;;8.18;;
30539;SDS011;17321;46.312;4.776;2022-10-31T11:06:57;23.85;;;6.93;;
30539;SDS011;17321;46.312;4.776;2022-10-31T11:09:23;20.80;;;7.35;;
30539;SDS011;17321;46.312;4.776;2022-10-31T11:11:49;18.80;;;7.03;;
30539;SDS011;17321;46.312;4.776;2022-10-31T11:14:15;23.50;;;7.28;;
30539;SDS011;17321;46.312;4.776;2022-10-31T11:16:43;22.75;;;6.97;;
30539;SDS011;17321;46.312;4.776;2022-10-31T11:19:20;23.23;;;6.85;;
30539;SDS011;17321;46.312;4.776;2022-10-31T11:21:47;32.67;;;7.97;;
30539;SDS011;17321;46.312;4.776;2022-10-31T11:24:15;19.80;;;7.10;;
30539;SDS011;17321;46.312;4.776;2022-10-31T11:26:42;20.10;;;6.50;;
30539;SDS011;17321;46.312;4.776;2022-10-31T11:29:15;18.02;;;6.80;;
30539;SDS011;17321;46.312;4.776;2022-10-31T11:31:43;23.08;;;7.57;;
30539;SDS011;17321;46.312;4.776;2022-10-31T11:34:14;24.70;;;7.90;;
30539;SDS011;17321;46.312;4.776;2022-10-31T11:36:43;29.30;;;7.25;;
30539;SDS011;17321;46.312;4.776;2022-10-31T11:39:15;22.40;;;7.68;;
30539;SDS011;17321;46.312;4.776;2022-10-31T11:41:41;16.77;;;6.38;;
30539;SDS011;17321;46.312;4.776;2022-10-31T11:44:21;22.10;;;6.65;;
30539;SDS011;17321;46.312;4.776;2022-10-31T11:46:49;23.10;;;6.05;;
30539;SDS011;17321;46.312;4.776;2022-10-31T11:49:33;17.05;;;6.30;;
30539;SDS011;17321;46.312;4.776;2022-10-31T11:52:20;22.60;;;7.15;;
30539;SDS011;17321;46.312;4.776;2022-10-31T11:57:24;15.07;;;6.28;;
30539;SDS011;17321;46.312;4.776;2022-10-31T11:59:54;32.58;;;6.90;;
30539;SDS011;17321;46.312;4.776;2022-10-31T12:02:21;19.80;;;6.68;;
30539;SDS011;17321;46.312;4.776;2022-10-31T12:05:10;16.63;;;6.22;;
30539;SDS011;17321;46.312;4.776;2022-10-31T12:07:33;18.73;;;6.03;;
30539;SDS011;17321;46.312;4.776;2022-10-31T12:10:00;19.60;;;6.30;;
30539;SDS011;17321;46.312;4.776;2022-10-31T12:25:14;11.73;;;4.70;;
30539;SDS011;17321;46.312;4.776;2022-10-31T12:30:40;21.48;;;4.53;;
30539;SDS011;17321;46.312;4.776;2022-10-31T12:46:20;10.85;;;2.72;;
30539;SDS011;17321;46.312;4.776;2022-10-31T12:48:56;15.75;;;3.38;;
30539;SDS011;17321;46.312;4.776;2022-10-31T12:54:45;21.70;;;3.75;;
30539;SDS011;17321;46.312;4.776;2022-10-31T12:57:16;15.75;;;3.47;;
30539;SDS011;17321;46.312;4.776;2022-10-31T12:59:48;13.07;;;2.83;;
30539;SDS011;17321;46.312;4.776;2022-10-31T13:07:21;11.27;;;2.70;;
30539;SDS011;17321;46.312;4.776;2022-10-31T13:10:35;15.73;;;3.60;;
30539;SDS011;17321;46.312;4.776;2022-10-31T13:12:35;14.18;;;3.58;;
30539;SDS011;17321;46.312;4.776;2022-10-31T13:15:21;9.50;;;2.95;;
30539;SDS011;17321;46.312;4.776;2022-10-31T13:17:49;12.32;;;3.15;;
30539;SDS011;17321;46.312;4.776;2022-10-31T13:20:20;8.88;;;2.63;;
30539;SDS011;17321;46.312;4.776;2022-10-31T13:22:49;13.65;;;3.10;;
30539;SDS011;17321;46.312;4.776;2022-10-31T13:25:24;12.13;;;3.55;;
30539;SDS011;17321;46.312;4.776;2022-10-31T13:28:00;9.70;;;2.95;;
30539;SDS011;17321;46.312;4.776;2022-10-31T13:30:29;14.60;;;3.22;;
30539;SDS011;17321;46.312;4.776;2022-10-31T13:33:02;11.40;;;3.25;;
30539;SDS011;17321;46.312;4.776;2022-10-31T13:35:41;17.48;;;3.75;;
30539;SDS011;17321;46.312;4.776;2022-10-31T13:43:12;14.95;;;3.60;;
30539;SDS011;17321;46.312;4.776;2022-10-31T13:45:47;15.13;;;4.15;;
30539;SDS011;17321;46.312;4.776;2022-10-31T13:50:40;17.50;;;4.38;;
30539;SDS011;17321;46.312;4.776;2022-10-31T13:53:19;13.77;;;3.05;;
30539;SDS011;17321;46.312;4.776;2022-10-31T13:55:47;16.92;;;3.53;;
30539;SDS011;17321;46.312;4.776;2022-10-31T13:58:21;10.60;;;3.80;;
30539;SDS011;17321;46.312;4.776;2022-10-31T14:03:33;19.60;;;4.68;;
30539;SDS011;17321;46.312;4.776;2022-10-31T14:06:01;24.65;;;4.32;;
30539;SDS011;17321;46.312;4.776;2022-10-31T14:08:33;13.75;;;4.15;;
30539;SDS011;17321;46.312;4.776;2022-10-31T14:11:00;21.02;;;4.35;;
30539;SDS011;17321;46.312;4.776;2022-10-31T14:13:36;15.50;;;4.03;;
30539;SDS011;17321;46.312;4.776;2022-10-31T14:16:20;22.75;;;3.80;;
30539;SDS011;17321;46.312;4.776;2022-10-31T14:18:58;19.33;;;4.43;;
30539;SDS011;17321;46.312;4.776;2022-10-31T14:23:51;20.92;;;3.88;;
30539;SDS011;17321;46.312;4.776;2022-10-31T14:26:20;25.02;;;4.75;;
30539;SDS011;17321;46.312;4.776;2022-10-31T14:28:47;23.38;;;5.20;;
30539;SDS011;17321;46.312;4.776;2022-10-31T14:37:13;24.10;;;4.70;;
30539;SDS011;17321;46.312;4.776;2022-10-31T14:47:20;16.88;;;4.40;;
30539;SDS011;17321;46.312;4.776;2022-10-31T14:54:44;25.85;;;5.30;;
30539;SDS011;17321;46.312;4.776;2022-10-31T14:57:22;15.23;;;4.30;;
30539;SDS011;17321;46.312;4.776;2022-10-31T14:59:50;20.90;;;4.72;;
30539;SDS011;17321;46.312;4.776;2022-10-31T15:02:25;27.70;;;5.38;;
30539;SDS011;17321;46.312;4.776;2022-10-31T15:04:52;31.08;;;6.32;;
30539;SDS011;17321;46.312;4.776;2022-10-31T15:07:28;20.23;;;4.85;;
30539;SDS011;17321;46.312;4.776;2022-10-31T15:09:55;20.85;;;4.90;;
30539;SDS011;17321;46.312;4.776;2022-10-31T15:12:22;26.00;;;5.68;;
30539;SDS011;17321;46.312;4.776;2022-10-31T15:14:49;24.83;;;6.13;;
30539;SDS011;17321;46.312;4.776;2022-10-31T15:17:15;25.88;;;5.40;;
30539;SDS011;17321;46.312;4.776;2022-10-31T15:19:41;19.02;;;5.28;;
30539;SDS011;17321;46.312;4.776;2022-10-31T15:22:10;24.85;;;5.22;;
30539;SDS011;17321;46.312;4.776;2022-10-31T15:24:39;16.90;;;5.25;;
30539;SDS011;17321;46.312;4.776;2022-10-31T15:27:05;17.35;;;5.32;;
30539;SDS011;17321;46.312;4.776;2022-10-31T15:29:36;19.48;;;5.75;;
30539;SDS011;17321;46.312;4.776;2022-10-31T15:32:19;24.40;;;5.25;;
30539;SDS011;17321;46.312;4.776;2022-10-31T15:34:46;18.40;;;4.72;;
30539;SDS011;17321;46.312;4.776;2022-10-31T15:37:13;26.17;;;5.40;;
30539;SDS011;17321;46.312;4.776;2022-10-31T15:39:40;27.77;;;4.93;;
30539;SDS011;17321;46.312;4.776;2022-10-31T15:44:59;21.98;;;5.57;;
30539;SDS011;17321;46.312;4.776;2022-10-31T15:47:26;20.30;;;5.15;;
30539;SDS011;17321;46.312;4.776;2022-10-31T15:49:55;20.65;;;5.13;;
30539;SDS011;17321;46.312;4.776;2022-10-31T15:52:25;23.80;;;5.90;;
30539;SDS011;17321;46.312;4.776;2022-10-31T15:54:53;17.30;;;5.20;;
30539;SDS011;17321;46.312;4.776;2022-10-31T15:57:20;23.30;;;6.22;;
30539;SDS011;17321;46.312;4.776;2022-10-31T15:59:47;19.60;;;5.20;;
30539;SDS011;17321;46.312;4.776;2022-10-31T16:02:17;24.85;;;5.63;;
30539;SDS011;17321;46.312;4.776;2022-10-31T16:04:54;23.23;;;5.38;;
30539;SDS011;17321;46.312;4.776;2022-10-31T16:07:20;26.42;;;6.03;;
30539;SDS011;17321;46.312;4.776;2022-10-31T16:14:42;24.10;;;5.40;;
30539;SDS011;17321;46.312;4.776;2022-10-31T16:17:12;17.00;;;5.68;;
30539;SDS011;17321;46.312;4.776;2022-10-31T16:20:00;30.98;;;7.30;;
30539;SDS011;17321;46.312;4.776;2022-10-31T16:22:32;26.00;;;6.40;;
30539;SDS011;17321;46.312;4.776;2022-10-31T16:25:10;16.67;;;5.57;;
30539;SDS011;17321;46.312;4.776;2022-10-31T16:27:36;19.13;;;5.22;;
30539;SDS011;17321;46.312;4.776;2022-10-31T16:30:24;20.02;;;5.45;;
30539;SDS011;17321;46.312;4.776;2022-10-31T16:32:54;23.15;;;6.82;;
30539;SDS011;17321;46.312;4.776;2022-10-31T16:35:24;23.65;;;6.63;;
30539;SDS011;17321;46.312;4.776;2022-10-31T16:37:51;21.85;;;5.85;;
30539;SDS011;17321;46.312;4.776;2022-10-31T16:40:17;20.20;;;6.07;;
30539;SDS011;17321;46.312;4.776;2022-10-31T16:42:44;17.88;;;5.70;;
30539;SDS011;17321;46.312;4.776;2022-10-31T16:45:19;14.32;;;5.45;;
30539;SDS011;17321;46.312;4.776;2022-10-31T16:47:46;23.05;;;5.90;;
30539;SDS011;17321;46.312;4.776;2022-10-31T16:50:16;24.08;;;6.65;;
30539;SDS011;17321;46.312;4.776;2022-10-31T16:52:43;22.25;;;5.13;;
30539;SDS011;17321;46.312;4.776;2022-10-31T16:55:11;25.55;;;6.28;;
30539;SDS011;17321;46.312;4.776;2022-10-31T16:57:38;24.75;;;5.68;;
30539;SDS011;17321;46.312;4.776;2022-10-31T17:00:04;30.85;;;6.40;;
30539;SDS011;17321;46.312;4.776;2022-10-31T17:02:30;25.90;;;6.03;;
30539;SDS011;17321;46.312;4.776;2022-10-31T17:04:57;22.02;;;7.00;;
30539;SDS011;17321;46.312;4.776;2022-10-31T17:07:23;22.83;;;5.40;;
30539;SDS011;17321;46.312;4.776;2022-10-31T17:09:49;19.08;;;6.18;;
30539;SDS011;17321;46.312;4.776;2022-10-31T17:12:16;25.70;;;5.95;;
30539;SDS011;17321;46.312;4.776;2022-10-31T17:14:45;27.85;;;6.28;;
30539;SDS011;17321;46.312;4.776;2022-10-31T17:17:13;23.90;;;6.22;;
30539;SDS011;17321;46.312;4.776;2022-10-31T17:19:40;27.08;;;6.25;;